Time;durP1;ratioP1;P1;durP2;ratioP2;P2;SDS_P1;SDS_P2;PMS_P1;PMS_P2;Temp;Humidity;BMP_temperature;BMP_pressure;BME280_temperature;BME280_humidity;BME280_pressure;Samples;Min_cycle;Max_cycle;Signal;HPM_P1;HPM_P2
2021/10/27 00:00:35;;;;;;;11.40;6.13;;;8.00;97.40;;;;;;5032243;28;20444;-76
2021/10/27 00:03:00;;;;;;;10.77;6.87;;;8.00;97.60;;;;;;5035924;28;20212;-75
2021/10/27 00:05:26;;;;;;;9.17;6.03;;;8.00;97.70;;;;;;5042045;28;20189;-73
2021/10/27 00:07:52;;;;;;;13.37;6.73;;;7.90;97.80;;;;;;5043641;28;20256;-74
2021/10/27 00:10:18;;;;;;;7.37;5.27;;;7.90;97.70;;;;;;5044571;28;20212;-75
2021/10/27 00:12:45;;;;;;;12.33;5.90;;;7.90;97.70;;;;;;5043183;28;20208;-75
2021/10/27 00:15:14;;;;;;;9.63;6.50;;;7.90;97.80;;;;;;5029059;28;20436;-75
2021/10/27 00:17:40;;;;;;;8.50;5.50;;;7.90;97.90;;;;;;5031306;28;20450;-76
2021/10/27 00:20:08;;;;;;;9.17;5.90;;;7.90;98.10;;;;;;5030375;28;20957;-75
2021/10/27 00:22:34;;;;;;;9.00;5.90;;;8.00;98.20;;;;;;5030820;28;20474;-74
2021/10/27 00:25:00;;;;;;;9.20;5.67;;;8.10;98.20;;;;;;5031037;28;20602;-75
2021/10/27 00:27:27;;;;;;;9.30;6.10;;;8.10;98.10;;;;;;5033558;28;20500;-75
2021/10/27 00:29:52;;;;;;;8.83;5.80;;;8.10;98.20;;;;;;5032562;28;20503;-75
2021/10/27 00:32:18;;;;;;;12.67;6.97;;;8.00;98.10;;;;;;5040019;28;20545;-76
2021/10/27 00:34:44;;;;;;;12.83;7.20;;;7.90;98.20;;;;;;5037440;28;20436;-75
2021/10/27 00:37:10;;;;;;;11.40;6.47;;;7.90;98.40;;;;;;5044033;28;20204;-74
2021/10/27 00:39:36;;;;;;;9.67;5.93;;;7.90;98.60;;;;;;5044617;28;20201;-75
2021/10/27 00:42:03;;;;;;;9.23;4.87;;;8.00;98.60;;;;;;5043968;28;20454;-76
2021/10/27 00:44:30;;;;;;;10.30;5.57;;;8.00;98.80;;;;;;5032265;28;20201;-76
2021/10/27 00:47:07;;;;;;;12.07;5.63;;;8.00;98.80;;;;;;5041812;28;20444;-74
2021/10/27 00:49:37;;;;;;;10.13;6.10;;;8.10;98.90;;;;;;5041086;28;20443;-75
2021/10/27 00:52:07;;;;;;;12.73;5.90;;;8.10;98.60;;;;;;5042414;28;20577;-74
2021/10/27 00:54:34;;;;;;;13.80;6.40;;;8.10;98.40;;;;;;5034375;28;20447;-75
2021/10/27 00:57:01;;;;;;;12.93;6.53;;;8.10;98.20;;;;;;5047092;28;20523;-76
2021/10/27 00:59:28;;;;;;;10.53;6.47;;;8.10;98.20;;;;;;5045556;28;20427;-74
2021/10/27 01:01:56;;;;;;;8.97;5.70;;;8.10;98.10;;;;;;5040241;28;20509;-77
2021/10/27 01:04:23;;;;;;;13.23;7.03;;;8.00;98.00;;;;;;5038295;28;20523;-77
2021/10/27 01:06:49;;;;;;;11.10;6.50;;;8.00;98.00;;;;;;5043190;28;20424;-74
2021/10/27 01:09:15;;;;;;;12.63;7.03;;;8.00;97.70;;;;;;5039616;28;20911;-76
2021/10/27 01:11:42;;;;;;;11.30;7.00;;;7.90;97.50;;;;;;5035537;28;20462;-76
2021/10/27 01:14:09;;;;;;;13.43;7.60;;;7.90;97.60;;;;;;5031447;28;20467;-75
2021/10/27 01:16:35;;;;;;;14.37;8.00;;;7.90;97.90;;;;;;5027116;28;20471;-74
2021/10/27 01:19:02;;;;;;;18.93;8.20;;;7.90;98.00;;;;;;5030438;28;20429;-74
2021/10/27 01:21:32;;;;;;;11.53;7.27;;;7.90;98.10;;;;;;5034212;28;20424;-75
2021/10/27 01:23:58;;;;;;;15.70;7.63;;;7.90;98.20;;;;;;5028906;28;20471;-76
2021/10/27 01:26:24;;;;;;;12.67;7.90;;;7.90;98.20;;;;;;5029856;28;20431;-75
2021/10/27 01:28:50;;;;;;;13.77;8.33;;;7.90;98.30;;;;;;5028668;28;21283;-74
2021/10/27 01:31:16;;;;;;;12.50;6.93;;;7.80;98.20;;;;;;5031483;28;20424;-74
2021/10/27 01:33:44;;;;;;;13.80;7.13;;;7.90;98.40;;;;;;5028521;28;20578;-75
2021/10/27 01:36:10;;;;;;;11.77;7.60;;;7.90;98.50;;;;;;5027918;28;20503;-75
2021/10/27 01:38:37;;;;;;;14.67;8.33;;;8.00;98.30;;;;;;5030522;28;20930;-75
2021/10/27 01:41:03;;;;;;;14.77;8.33;;;8.00;98.10;;;;;;5028898;28;20427;-74
2021/10/27 01:43:29;;;;;;;10.23;6.90;;;7.90;97.90;;;;;;5028778;28;20841;-75
2021/10/27 01:45:55;;;;;;;11.77;6.70;;;7.90;97.90;;;;;;5029441;28;20432;-73
2021/10/27 01:48:21;;;;;;;13.13;7.50;;;8.00;97.70;;;;;;5031288;28;20435;-72
2021/10/27 01:50:47;;;;;;;11.00;6.77;;;7.90;97.60;;;;;;5031007;28;20227;-75
2021/10/27 01:53:14;;;;;;;13.73;7.70;;;7.80;97.50;;;;;;5030954;28;20468;-75
2021/10/27 01:55:41;;;;;;;10.23;7.20;;;7.70;97.40;;;;;;5030282;28;20430;-74
2021/10/27 01:58:07;;;;;;;14.53;7.60;;;7.60;97.50;;;;;;5030799;28;20428;-72
2021/10/27 02:00:33;;;;;;;12.47;7.97;;;7.60;97.90;;;;;;5031137;28;20740;-72
2021/10/27 02:02:59;;;;;;;18.67;8.47;;;7.50;98.00;;;;;;5031123;28;20461;-71
2021/10/27 02:05:24;;;;;;;17.30;9.20;;;7.50;98.20;;;;;;5030332;28;20835;-73
2021/10/27 02:07:50;;;;;;;12.80;7.97;;;7.50;98.20;;;;;;5031726;28;21257;-75
2021/10/27 02:10:16;;;;;;;14.30;8.70;;;7.50;98.20;;;;;;5031719;28;20239;-74
2021/10/27 02:12:42;;;;;;;15.07;8.43;;;7.40;98.20;;;;;;5033321;28;20254;-72
2021/10/27 02:15:10;;;;;;;13.57;6.90;;;7.30;98.20;;;;;;5032150;28;20648;-78
2021/10/27 02:17:36;;;;;;;12.00;6.97;;;7.30;98.40;;;;;;5034359;28;20529;-73
2021/10/27 02:20:03;;;;;;;11.30;7.10;;;7.40;98.60;;;;;;5034641;28;20784;-73
2021/10/27 02:22:29;;;;;;;11.97;7.70;;;7.50;98.70;;;;;;5032876;28;20830;-75
2021/10/27 02:24:56;;;;;;;15.50;7.47;;;7.40;98.80;;;;;;5033675;28;20519;-73
2021/10/27 02:27:22;;;;;;;14.80;7.30;;;7.40;98.70;;;;;;5034402;28;20182;-73
2021/10/27 02:29:48;;;;;;;14.40;7.50;;;7.40;98.50;;;;;;5034056;28;20915;-73
2021/10/27 02:32:13;;;;;;;10.87;6.80;;;7.40;97.90;;;;;;5034248;28;20463;-74
2021/10/27 02:34:39;;;;;;;13.90;7.47;;;7.30;97.40;;;;;;5032459;28;20285;-74
2021/10/27 02:37:05;;;;;;;12.03;7.10;;;7.20;97.40;;;;;;5033468;28;20280;-75
2021/10/27 02:39:31;;;;;;;19.33;8.10;;;7.20;97.60;;;;;;5035449;28;20319;-74
2021/10/27 02:41:56;;;;;;;12.50;7.50;;;7.20;97.70;;;;;;5034271;28;20416;-73
2021/10/27 02:44:22;;;;;;;10.90;6.70;;;7.20;97.90;;;;;;5034013;28;20209;-75
2021/10/27 02:46:48;;;;;;;16.33;7.87;;;7.20;98.00;;;;;;5034303;28;20257;-73
2021/10/27 02:49:15;;;;;;;14.70;7.90;;;7.30;98.10;;;;;;5034651;28;20420;-74
2021/10/27 02:51:41;;;;;;;14.73;7.43;;;7.20;98.20;;;;;;5039845;28;20471;-73
2021/10/27 02:54:08;;;;;;;14.97;8.00;;;7.20;98.30;;;;;;5035189;28;21033;-76
2021/10/27 02:56:33;;;;;;;14.80;7.90;;;7.20;98.40;;;;;;5034091;28;20416;-73
2021/10/27 02:58:59;;;;;;;13.80;7.73;;;7.20;98.50;;;;;;5032488;28;20478;-72
2021/10/27 03:01:25;;;;;;;10.80;6.83;;;7.20;98.60;;;;;;5033739;28;20183;-73
2021/10/27 03:03:52;;;;;;;15.63;7.80;;;7.30;98.60;;;;;;5033341;28;20534;-73
2021/10/27 03:06:18;;;;;;;14.13;7.30;;;7.30;98.60;;;;;;5033577;28;20185;-74
2021/10/27 03:08:45;;;;;;;12.57;7.53;;;7.30;98.50;;;;;;5033841;28;20511;-74
2021/10/27 03:11:12;;;;;;;13.97;8.47;;;7.40;98.50;;;;;;5040634;28;20795;-73
2021/10/27 03:13:37;;;;;;;14.33;7.77;;;7.40;98.10;;;;;;5032907;28;21140;-74
2021/10/27 03:16:04;;;;;;;14.80;8.33;;;7.40;98.00;;;;;;5033954;28;20428;-77
2021/10/27 03:18:29;;;;;;;17.40;9.43;;;7.40;97.80;;;;;;5031257;28;20659;-73
2021/10/27 03:20:55;;;;;;;17.63;9.03;;;7.40;97.70;;;;;;5033248;28;20420;-74
2021/10/27 03:23:21;;;;;;;22.80;8.60;;;7.30;97.50;;;;;;5032291;28;20205;-73
2021/10/27 03:25:46;;;;;;;11.83;7.33;;;7.30;97.70;;;;;;5033005;28;20189;-73
2021/10/27 03:28:12;;;;;;;14.40;8.57;;;7.30;97.80;;;;;;5033286;28;20185;-74
2021/10/27 03:30:38;;;;;;;16.20;7.70;;;7.30;97.90;;;;;;5033070;28;20239;-72
2021/10/27 03:33:03;;;;;;;17.60;9.27;;;7.40;97.90;;;;;;5033555;28;20928;-75
2021/10/27 03:35:29;;;;;;;11.97;7.80;;;7.40;97.70;;;;;;5034645;28;20260;-73
2021/10/27 03:37:55;;;;;;;16.33;7.43;;;7.30;97.40;;;;;;5038511;28;20195;-74
2021/10/27 03:40:21;;;;;;;11.30;7.40;;;7.30;97.50;;;;;;5034451;28;20676;-74
2021/10/27 03:42:46;;;;;;;18.80;8.77;;;7.20;97.50;;;;;;5034939;28;20197;-75
2021/10/27 03:45:12;;;;;;;13.47;7.70;;;7.20;97.50;;;;;;5035237;28;20185;-73
2021/10/27 03:47:38;;;;;;;13.20;8.30;;;7.10;97.40;;;;;;5041480;28;20225;-72
2021/10/27 03:50:07;;;;;;;18.17;9.67;;;7.20;97.60;;;;;;5039671;28;20177;-74
2021/10/27 03:52:32;;;;;;;13.63;8.20;;;7.10;97.60;;;;;;5032393;28;20197;-73
2021/10/27 03:54:58;;;;;;;15.30;8.93;;;7.10;97.60;;;;;;5032655;28;20559;-74
2021/10/27 03:57:24;;;;;;;18.07;9.00;;;7.10;97.70;;;;;;5033819;28;20243;-74
2021/10/27 03:59:50;;;;;;;17.07;10.00;;;7.10;98.00;;;;;;5034572;28;20260;-72
2021/10/27 04:02:15;;;;;;;13.63;8.43;;;7.10;98.20;;;;;;5034064;28;20600;-72
2021/10/27 04:04:41;;;;;;;17.97;10.30;;;7.10;98.40;;;;;;5031402;28;20200;-74
2021/10/27 04:07:07;;;;;;;18.00;10.40;;;7.10;98.40;;;;;;5033704;28;20262;-74
2021/10/27 04:09:32;;;;;;;15.20;9.63;;;7.00;98.40;;;;;;5033510;28;20216;-76
2021/10/27 04:11:58;;;;;;;15.80;8.90;;;7.00;98.50;;;;;;5032837;28;20209;-73
2021/10/27 04:14:24;;;;;;;16.90;9.10;;;7.10;98.50;;;;;;5033306;28;20212;-73
2021/10/27 04:16:51;;;;;;;17.40;10.57;;;7.10;98.60;;;;;;5032327;28;20181;-74
2021/10/27 04:19:17;;;;;;;13.93;8.60;;;7.10;98.40;;;;;;5032731;28;20188;-75
2021/10/27 04:21:42;;;;;;;15.10;7.90;;;7.00;98.50;;;;;;5032127;28;20785;-75
2021/10/27 04:24:08;;;;;;;13.00;7.60;;;7.10;98.50;;;;;;5029650;28;20538;-77
2021/10/27 04:26:34;;;;;;;17.70;8.73;;;7.10;98.40;;;;;;5032278;28;20572;-75
2021/10/27 04:29:00;;;;;;;14.63;8.10;;;7.10;98.40;;;;;;5032051;28;20181;-74
2021/10/27 04:31:27;;;;;;;13.30;8.30;;;7.10;98.40;;;;;;5031318;28;20546;-74
2021/10/27 04:33:53;;;;;;;18.57;9.37;;;7.10;98.50;;;;;;5028546;28;20221;-75
2021/10/27 04:36:19;;;;;;;18.40;9.80;;;7.00;98.60;;;;;;5030905;28;20420;-76
2021/10/27 04:38:45;;;;;;;17.17;9.30;;;7.10;98.50;;;;;;5031573;28;20546;-73
2021/10/27 04:41:11;;;;;;;14.47;8.67;;;7.10;98.60;;;;;;5036557;28;20455;-75
2021/10/27 04:43:37;;;;;;;13.53;7.33;;;7.10;98.50;;;;;;5035178;28;20335;-76
2021/10/27 04:46:03;;;;;;;16.57;9.10;;;7.10;98.50;;;;;;5032664;28;20424;-75
2021/10/27 04:48:29;;;;;;;16.70;8.47;;;7.10;98.50;;;;;;5036887;28;20867;-75
2021/10/27 04:50:55;;;;;;;18.17;9.50;;;7.00;98.50;;;;;;5038641;28;20447;-77
2021/10/27 04:53:23;;;;;;;19.00;10.40;;;7.10;98.50;;;;;;5036767;28;20327;-74
2021/10/27 04:55:50;;;;;;;14.67;8.63;;;7.10;98.50;;;;;;5029394;28;20185;-75
2021/10/27 04:58:16;;;;;;;16.30;9.30;;;7.10;98.30;;;;;;5030462;28;20430;-76
2021/10/27 05:00:42;;;;;;;16.30;9.50;;;7.10;98.10;;;;;;5029414;28;20510;-74
2021/10/27 05:03:08;;;;;;;20.03;9.80;;;7.00;97.50;;;;;;5028372;28;20459;-76
2021/10/27 05:05:40;;;;;;;17.83;9.50;;;6.90;97.40;;;;;;5029529;28;20184;-74
2021/10/27 05:08:05;;;;;;;16.67;9.67;;;6.90;97.60;;;;;;5030682;28;20193;-76
2021/10/27 05:10:32;;;;;;;17.50;9.50;;;6.90;97.90;;;;;;5029894;28;20434;-75
2021/10/27 05:12:58;;;;;;;21.23;10.90;;;6.80;98.20;;;;;;5031485;28;20216;-73
2021/10/27 05:15:24;;;;;;;18.10;11.23;;;6.80;98.30;;;;;;5031559;28;20911;-73
2021/10/27 05:17:49;;;;;;;22.03;13.03;;;6.70;98.30;;;;;;5030512;28;20200;-75
2021/10/27 05:20:15;;;;;;;23.87;12.80;;;6.80;98.50;;;;;;5031847;28;20191;-75
2021/10/27 05:22:41;;;;;;;27.07;12.70;;;6.70;98.50;;;;;;5031752;28;20185;-73
2021/10/27 05:25:07;;;;;;;18.17;11.60;;;6.70;98.60;;;;;;5029669;28;20188;-74
2021/10/27 05:27:34;;;;;;;33.77;13.87;;;6.80;98.70;;;;;;5032011;28;20211;-72
2021/10/27 05:29:59;;;;;;;23.80;11.03;;;6.80;98.60;;;;;;5032121;28;20430;-73
2021/10/27 05:32:25;;;;;;;21.50;12.43;;;6.80;98.60;;;;;;5031370;28;20835;-75
2021/10/27 05:34:51;;;;;;;20.20;12.73;;;6.70;98.50;;;;;;5030901;28;20207;-74
2021/10/27 05:37:17;;;;;;;25.33;12.93;;;6.80;98.50;;;;;;5032024;28;20177;-75
2021/10/27 05:39:43;;;;;;;19.30;10.73;;;6.80;98.40;;;;;;5032677;28;20196;-74
2021/10/27 05:42:13;;;;;;;22.10;11.37;;;6.70;98.40;;;;;;5035583;28;20181;-75
2021/10/27 05:44:39;;;;;;;21.93;11.97;;;6.80;98.40;;;;;;5036213;28;20577;-75
2021/10/27 05:47:05;;;;;;;22.00;12.87;;;6.70;98.30;;;;;;5040286;28;20455;-73
2021/10/27 05:49:44;;;;;;;29.17;13.40;;;6.70;98.20;;;;;;5040154;28;20652;-73
2021/10/27 05:57:26;;;;;;;22.23;11.40;;;6.70;97.90;;;;;;5034786;28;20774;-76
2021/10/27 05:59:52;;;;;;;22.47;12.80;;;6.70;97.90;;;;;;5038548;28;20416;-73
2021/10/27 06:02:18;;;;;;;19.40;11.80;;;6.70;98.00;;;;;;5035183;28;20474;-73
2021/10/27 06:04:44;;;;;;;20.93;12.23;;;6.70;98.00;;;;;;5032973;28;20362;-74
2021/10/27 06:07:10;;;;;;;19.90;12.03;;;6.70;97.90;;;;;;5034963;28;20431;-73
2021/10/27 06:09:37;;;;;;;21.87;12.67;;;6.70;98.00;;;;;;5033540;28;20419;-72
2021/10/27 06:12:06;;;;;;;23.33;12.50;;;6.80;98.10;;;;;;5033526;28;20644;-75
2021/10/27 06:14:32;;;;;;;20.03;12.00;;;6.80;97.90;;;;;;5034402;28;20475;-74
2021/10/27 06:16:58;;;;;;;23.23;11.93;;;6.90;97.80;;;;;;5033725;28;20423;-74
2021/10/27 06:19:24;;;;;;;23.10;11.60;;;6.90;97.70;;;;;;5033482;28;20863;-75
2021/10/27 06:21:50;;;;;;;21.23;11.40;;;7.00;97.60;;;;;;5034883;28;20418;-75
2021/10/27 06:24:16;;;;;;;24.70;12.00;;;7.00;97.50;;;;;;5033686;28;20225;-73
2021/10/27 06:26:43;;;;;;;17.77;10.97;;;7.10;97.20;;;;;;5033090;28;20477;-77
2021/10/27 06:29:13;;;;;;;19.50;10.70;;;7.10;96.90;;;;;;5035235;28;20474;-76
2021/10/27 06:47:44;;;;;;;21.67;11.57;;;7.50;95.80;;;;;;5034180;28;20439;-75
2021/10/27 06:50:10;;;;;;;23.43;11.07;;;7.50;96.10;;;;;;5045415;28;20788;-75
2021/10/27 06:52:36;;;;;;;20.87;10.93;;;7.50;96.30;;;;;;5039657;28;20467;-75
2021/10/27 06:55:03;;;;;;;21.10;12.40;;;7.60;96.40;;;;;;5034859;28;20192;-76
2021/10/27 06:57:28;;;;;;;22.03;10.70;;;7.70;96.30;;;;;;5028144;28;20766;-75
2021/10/27 07:00:12;;;;;;;21.20;11.63;;;7.80;95.90;;;;;;5037429;28;20427;-76
2021/10/27 07:16:09;;;;;;;25.53;13.67;;;8.20;94.90;;;;;;5033879;28;20832;-74
2021/10/27 07:18:35;;;;;;;18.77;10.67;;;8.20;95.00;;;;;;5034422;28;20412;-75
2021/10/27 07:21:01;;;;;;;21.27;11.90;;;8.20;95.00;;;;;;5032465;28;20431;-75
2021/10/27 07:23:27;;;;;;;19.97;11.20;;;8.30;95.00;;;;;;5033663;28;20448;-77
2021/10/27 07:25:57;;;;;;;23.03;12.43;;;8.30;94.90;;;;;;5032948;28;20485;-74
2021/10/27 07:28:25;;;;;;;21.33;12.23;;;8.40;94.90;;;;;;5032846;28;21685;-76
2021/10/27 07:30:52;;;;;;;32.93;13.10;;;8.30;94.70;;;;;;5033849;28;20416;-76
2021/10/27 07:33:19;;;;;;;17.80;11.30;;;8.40;94.80;;;;;;5032672;28;20467;-75
2021/10/27 07:40:58;;;;;;;19.23;11.63;;;8.50;94.80;;;;;;5033805;28;20511;-75
2021/10/27 07:43:27;;;;;;;20.97;11.97;;;8.50;94.80;;;;;;5033783;28;20599;-77
2021/10/27 07:45:54;;;;;;;22.70;11.60;;;8.60;94.60;;;;;;5027563;28;20200;-77
2021/10/27 07:48:20;;;;;;;20.57;11.73;;;8.70;94.80;;;;;;5034184;28;20938;-77
2021/10/27 07:50:47;;;;;;;22.50;12.90;;;8.80;94.90;;;;;;5034679;28;20902;-76
2021/10/27 07:53:14;;;;;;;26.10;12.37;;;8.90;94.50;;;;;;5034829;28;20471;-77
2021/10/27 07:55:42;;;;;;;19.67;11.37;;;8.80;93.80;;;;;;5033012;28;20424;-77
2021/10/27 07:58:09;;;;;;;19.07;11.57;;;8.80;93.50;;;;;;5032084;28;20815;-77
2021/10/27 08:00:35;;;;;;;23.23;11.70;;;8.80;93.30;;;;;;5033267;28;20868;-77
2021/10/27 08:03:02;;;;;;;21.83;12.50;;;8.90;93.30;;;;;;5032449;28;20454;-75
2021/10/27 08:05:30;;;;;;;20.80;10.83;;;8.80;93.20;;;;;;5033896;28;20446;-78
2021/10/27 08:07:57;;;;;;;30.13;12.87;;;8.90;93.20;;;;;;5033650;28;20927;-80
2021/10/27 08:10:24;;;;;;;20.00;10.87;;;8.90;92.90;;;;;;5021710;28;20431;-77
2021/10/27 08:12:50;;;;;;;21.10;11.37;;;9.00;92.80;;;;;;5035226;28;21063;-79
2021/10/27 08:15:17;;;;;;;21.83;11.87;;;9.00;92.80;;;;;;5035475;28;20428;-79
2021/10/27 08:17:43;;;;;;;18.47;11.37;;;9.10;92.60;;;;;;5029708;28;20173;-79
2021/10/27 08:20:11;;;;;;;21.17;11.43;;;9.10;92.50;;;;;;5034760;28;20500;-79
2021/10/27 08:22:39;;;;;;;20.70;11.13;;;9.20;92.50;;;;;;5035591;28;20470;-79
2021/10/27 08:25:07;;;;;;;23.23;12.37;;;9.20;92.20;;;;;;5033718;28;20435;-78
2021/10/27 08:27:36;;;;;;;18.33;11.30;;;9.30;91.90;;;;;;5035095;28;20432;-79
2021/10/27 08:30:10;;;;;;;19.10;11.60;;;9.30;91.70;;;;;;5041736;28;20485;-80
2021/10/27 08:32:42;;;;;;;21.30;11.60;;;9.30;91.70;;;;;;5034666;28;20451;-78
2021/10/27 08:35:13;;;;;;;19.60;11.43;;;9.30;91.80;;;;;;5042487;28;20422;-76
2021/10/27 08:37:43;;;;;;;17.67;11.67;;;9.50;92.00;;;;;;5043114;28;21146;-78
2021/10/27 08:40:10;;;;;;;16.30;10.80;;;9.60;91.90;;;;;;5035513;28;20440;-79
2021/10/27 08:42:36;;;;;;;18.07;10.90;;;9.70;92.00;;;;;;5042575;28;20434;-79
2021/10/27 08:45:02;;;;;;;20.27;12.53;;;9.80;91.70;;;;;;5047565;28;20451;-79
2021/10/27 08:47:28;;;;;;;20.90;11.30;;;9.90;91.70;;;;;;5047224;28;20186;-78
2021/10/27 08:49:56;;;;;;;26.60;14.67;;;10.00;91.50;;;;;;5037589;28;20428;-79
2021/10/27 08:52:22;;;;;;;18.57;12.83;;;10.00;91.30;;;;;;5032016;28;20468;-77
2021/10/27 08:54:48;;;;;;;21.50;11.87;;;10.00;90.60;;;;;;5030377;28;20444;-79
2021/10/27 08:57:14;;;;;;;24.13;12.03;;;10.00;90.40;;;;;;5031660;28;20447;-78
2021/10/27 09:02:25;;;;;;;24.77;12.67;;;10.00;90.60;;;;;;5034618;28;20934;-78
2021/10/27 09:10:00;;;;;;;21.67;11.87;;;10.30;90.10;;;;;;5032829;28;20460;-79
2021/10/27 09:35:04;;;;;;;24.23;12.57;;;10.90;88.10;;;;;;5023708;28;20430;-78
2021/10/27 10:05:13;;;;;;;19.57;11.80;;;11.70;86.00;;;;;;5035495;28;20462;-76
2021/10/27 10:07:39;;;;;;;21.43;12.70;;;11.90;85.70;;;;;;5040178;28;20432;-82
2021/10/27 10:10:07;;;;;;;15.63;10.97;;;11.80;85.30;;;;;;5036588;28;20432;-79
2021/10/27 10:12:43;;;;;;;16.70;10.50;;;11.80;86.20;;;;;;5035906;28;20467;-80
2021/10/27 10:15:10;;;;;;;17.47;10.33;;;12.10;85.60;;;;;;5028211;28;20451;-80
2021/10/27 10:17:41;;;;;;;18.27;11.33;;;12.40;84.10;;;;;;5036822;28;20416;-78
2021/10/27 10:20:11;;;;;;;19.40;10.93;;;12.70;83.40;;;;;;5036152;28;20470;-80
2021/10/27 10:22:41;;;;;;;20.30;11.10;;;13.10;82.20;;;;;;5030107;28;20468;-79
2021/10/27 10:25:20;;;;;;;17.70;10.87;;;13.50;80.80;;;;;;5030214;28;20431;-80
2021/10/27 10:27:48;;;;;;;14.67;9.20;;;14.20;79.50;;;;;;5030351;28;20550;-79
2021/10/27 10:30:29;;;;;;;16.80;10.23;;;14.90;76.10;;;;;;5031433;28;20420;-79
2021/10/27 10:33:07;;;;;;;17.37;10.43;;;15.10;73.50;;;;;;5035335;28;20553;-82
2021/10/27 10:38:35;;;;;;;17.47;6.87;;;16.00;71.70;;;;;;5035108;28;20434;-79
2021/10/27 10:41:14;;;;;;;10.73;5.43;;;16.40;68.60;;;;;;5031558;28;20420;-77
2021/10/27 11:11:50;;;;;;;17.77;7.47;;;16.40;69.90;;;;;;5038187;28;20474;-80
2021/10/27 11:22:53;;;;;;;11.93;5.40;;;18.50;62.90;;;;;;5036185;28;20449;-75
2021/10/27 11:25:44;;;;;;;12.13;5.67;;;17.90;62.20;;;;;;5032061;28;20440;-80
2021/10/27 11:39:39;;;;;;;10.30;4.90;;;19.10;58.40;;;;;;5036382;28;20583;-77
2021/10/27 11:45:10;;;;;;;5.63;3.60;;;18.60;60.90;;;;;;5034802;28;20432;-79
2021/10/27 11:47:45;;;;;;;6.83;4.53;;;18.90;60.00;;;;;;5034113;28;20431;-78
2021/10/27 11:50:14;;;;;;;8.70;4.60;;;19.50;59.30;;;;;;5040070;28;20486;-78
2021/10/27 11:52:49;;;;;;;8.47;4.90;;;20.00;57.20;;;;;;5038614;28;20522;-79
2021/10/27 11:55:18;;;;;;;7.53;5.03;;;20.20;56.10;;;;;;5033426;28;20450;-77
2021/10/27 11:57:47;;;;;;;6.70;4.10;;;20.10;55.20;;;;;;5035455;28;20487;-78
2021/10/27 12:00:23;;;;;;;9.67;4.70;;;20.20;56.00;;;;;;5036125;28;20444;-76
2021/10/27 12:02:57;;;;;;;5.57;4.10;;;20.20;55.70;;;;;;5036282;28;20451;-79
2021/10/27 12:05:28;;;;;;;8.17;4.13;;;20.10;55.00;;;;;;5035435;28;20435;-78
2021/10/27 12:08:24;;;;;;;9.70;5.00;;;20.00;55.40;;;;;;5034621;28;20438;-80
2021/10/27 12:13:51;;;;;;;7.03;3.90;;;19.90;56.60;;;;;;5027718;28;20836;-80
2021/10/27 12:19:11;;;;;;;8.60;4.77;;;20.10;55.30;;;;;;5036145;28;20425;-77
2021/10/27 12:21:37;;;;;;;5.60;3.70;;;20.30;55.20;;;;;;5032512;28;20508;-76
2021/10/27 12:24:03;;;;;;;6.93;4.00;;;20.40;55.40;;;;;;5035901;28;20476;-75
2021/10/27 12:26:44;;;;;;;5.77;4.10;;;20.70;53.70;;;;;;5037545;28;20592;-75
2021/10/27 12:29:15;;;;;;;7.30;4.70;;;20.80;53.60;;;;;;5047278;28;20427;-76
2021/10/27 12:31:42;;;;;;;6.40;3.40;;;20.90;53.80;;;;;;5043331;28;20436;-76
2021/10/27 12:34:19;;;;;;;7.67;3.67;;;20.70;52.60;;;;;;5041002;28;20838;-76
2021/10/27 12:36:45;;;;;;;4.90;3.10;;;20.00;54.20;;;;;;5042642;28;20916;-76
2021/10/27 12:39:42;;;;;;;6.17;3.40;;;20.10;54.50;;;;;;5046299;28;20442;-76
2021/10/27 12:42:07;;;;;;;6.13;3.67;;;20.20;54.10;;;;;;5047779;28;20199;-76
2021/10/27 12:44:44;;;;;;;6.90;3.83;;;20.10;53.60;;;;;;5041496;28;20434;-76
2021/10/27 12:47:16;;;;;;;7.30;3.10;;;20.20;54.40;;;;;;5049611;28;20425;-77
2021/10/27 12:49:45;;;;;;;5.93;3.20;;;20.40;53.80;;;;;;5048911;28;20450;-76
2021/10/27 12:52:25;;;;;;;6.97;2.90;;;20.70;53.20;;;;;;5048664;28;20498;-77
2021/10/27 12:55:06;;;;;;;3.77;2.90;;;20.90;51.60;;;;;;5046778;28;20442;-76
2021/10/27 12:57:44;;;;;;;5.90;3.03;;;21.10;52.10;;;;;;5046585;28;20502;-76
2021/10/27 13:00:15;;;;;;;5.50;3.50;;;21.20;50.90;;;;;;5046367;28;20433;-77
2021/10/27 13:02:47;;;;;;;6.53;3.20;;;21.20;51.20;;;;;;5047337;28;20430;-76
2021/10/27 13:05:28;;;;;;;5.70;3.03;;;21.30;51.00;;;;;;5045360;28;20435;-76
2021/10/27 13:08:01;;;;;;;4.57;3.03;;;21.30;50.50;;;;;;5045250;28;20427;-77
2021/10/27 13:10:42;;;;;;;4.10;2.70;;;21.30;51.00;;;;;;5044757;28;20399;-76
2021/10/27 13:16:05;;;;;;;5.50;3.47;;;21.30;49.40;;;;;;5048124;28;20424;-77
2021/10/27 13:21:24;;;;;;;6.27;3.70;;;21.10;51.40;;;;;;5049325;28;20430;-75
2021/10/27 13:32:03;;;;;;;7.70;4.00;;;21.40;49.90;;;;;;5048111;28;20434;-76
2021/10/27 13:34:29;;;;;;;10.43;5.53;;;21.40;50.10;;;;;;5041801;28;20434;-76
2021/10/27 13:36:55;;;;;;;7.17;3.73;;;21.40;50.10;;;;;;5051329;28;20430;-77
2021/10/27 13:39:23;;;;;;;6.10;4.03;;;21.50;50.10;;;;;;5049335;28;20199;-76
2021/10/27 13:42:00;;;;;;;4.73;3.80;;;21.50;49.30;;;;;;5049188;28;20193;-76
2021/10/27 13:44:31;;;;;;;7.63;3.90;;;21.50;50.60;;;;;;5047953;28;20576;-75
2021/10/27 13:47:15;;;;;;;7.37;4.30;;;21.50;51.00;;;;;;5045464;28;20433;-77
2021/10/27 13:57:45;;;;;;;5.37;3.50;;;21.60;50.30;;;;;;5044002;28;20982;-76
2021/10/27 14:06:11;;;;;;;5.50;4.50;;;19.90;54.80;;;;;;5050068;28;20432;-77
2021/10/27 14:09:04;;;;;;;8.73;4.20;;;19.70;53.70;;;;;;5051873;28;20424;-76
2021/10/27 14:14:24;;;;;;;12.17;6.90;;;19.20;54.90;;;;;;5042413;28;20476;-75
2021/10/27 14:17:08;;;;;;;8.50;4.43;;;19.00;54.90;;;;;;5051185;28;20432;-75
2021/10/27 14:19:47;;;;;;;7.83;4.17;;;18.50;55.60;;;;;;5052804;28;20428;-77
2021/10/27 15:19:48;;;;;;;9.70;4.10;;;16.70;66.60;;;;;;5031989;28;20422;-77
2021/10/27 15:22:23;;;;;;;9.57;3.83;;;16.70;66.30;;;;;;5030674;28;20941;-76
2021/10/27 15:41:21;;;;;;;5.00;3.50;;;15.90;71.40;;;;;;5028617;28;20461;-76
2021/10/27 15:51:57;;;;;;;7.10;3.90;;;15.30;73.60;;;;;;5031936;28;20423;-76
2021/10/27 15:54:23;;;;;;;6.90;3.43;;;15.10;74.20;;;;;;5031991;28;20525;-77
2021/10/27 15:56:49;;;;;;;9.70;3.80;;;14.90;74.80;;;;;;5033173;28;20761;-76
2021/10/27 15:59:15;;;;;;;10.87;4.13;;;14.80;75.20;;;;;;5033037;28;20179;-75
2021/10/27 16:01:41;;;;;;;7.13;3.60;;;14.60;75.90;;;;;;5036262;28;20416;-77
2021/10/27 16:04:08;;;;;;;6.33;4.10;;;14.50;76.40;;;;;;5033313;28;20407;-75
2021/10/27 16:06:40;;;;;;;7.33;4.73;;;14.40;76.80;;;;;;5041954;28;20416;-75
2021/10/27 16:09:09;;;;;;;6.33;4.20;;;14.30;77.40;;;;;;5038790;28;20420;-77
2021/10/27 16:11:36;;;;;;;7.23;3.90;;;14.20;78.30;;;;;;5031620;28;20801;-77
2021/10/27 16:14:04;;;;;;;7.50;4.40;;;14.00;78.60;;;;;;5037397;28;20468;-75
2021/10/27 16:16:30;;;;;;;8.90;3.77;;;13.90;79.00;;;;;;5034469;28;20424;-77
2021/10/27 16:18:58;;;;;;;5.30;3.80;;;13.80;79.60;;;;;;5034183;28;20416;-77
2021/10/27 16:21:24;;;;;;;9.30;3.90;;;13.60;79.90;;;;;;5042935;28;20536;-76
2021/10/27 16:23:50;;;;;;;13.03;4.57;;;13.50;80.60;;;;;;5034934;28;20912;-76
2021/10/27 16:26:16;;;;;;;11.23;4.70;;;13.40;80.90;;;;;;5032626;28;20435;-76
2021/10/27 16:28:42;;;;;;;8.77;4.90;;;13.30;81.20;;;;;;5031617;28;20478;-76
2021/10/27 16:31:08;;;;;;;8.27;5.27;;;13.30;81.70;;;;;;5032955;28;20432;-76
2021/10/27 16:33:34;;;;;;;10.13;5.40;;;13.20;81.80;;;;;;5028721;28;20746;-76
2021/10/27 16:36:00;;;;;;;8.97;6.17;;;13.10;81.80;;;;;;5028677;28;20193;-77
2021/10/27 16:38:26;;;;;;;9.60;6.33;;;13.10;81.90;;;;;;5033370;28;20621;-76
2021/10/27 16:40:52;;;;;;;7.23;5.40;;;13.00;82.20;;;;;;5032727;28;20419;-76
2021/10/27 16:43:19;;;;;;;7.63;5.30;;;13.00;82.10;;;;;;5032327;28;20934;-76
2021/10/27 16:45:45;;;;;;;9.93;5.37;;;12.90;82.40;;;;;;5027346;28;20458;-75
2021/10/27 16:48:11;;;;;;;7.03;4.60;;;12.80;82.70;;;;;;5029625;28;20435;-76
2021/10/27 16:50:37;;;;;;;8.87;4.70;;;12.70;83.00;;;;;;5029284;28;20428;-74
2021/10/27 16:53:03;;;;;;;5.77;4.37;;;12.60;83.60;;;;;;5028994;28;20486;-75
2021/10/27 16:55:29;;;;;;;5.07;3.90;;;12.60;84.00;;;;;;5020786;28;20416;-74
2021/10/27 16:57:58;;;;;;;6.00;4.27;;;12.50;84.40;;;;;;5029670;28;20428;-75
2021/10/27 17:00:30;;;;;;;9.63;4.47;;;12.50;85.00;;;;;;5028619;28;20431;-75
2021/10/27 17:02:56;;;;;;;6.30;4.20;;;12.40;85.30;;;;;;5024257;28;20549;-74
2021/10/27 17:05:23;;;;;;;11.93;5.80;;;12.40;85.60;;;;;;5027917;28;20442;-74
2021/10/27 17:07:49;;;;;;;7.80;4.63;;;12.30;86.00;;;;;;5028716;28;20424;-75
2021/10/27 17:10:16;;;;;;;11.43;5.90;;;12.20;86.30;;;;;;5028286;28;20435;-76
2021/10/27 17:12:43;;;;;;;7.67;5.03;;;12.20;86.80;;;;;;5028952;28;20525;-76
2021/10/27 17:15:10;;;;;;;9.90;5.80;;;12.10;87.00;;;;;;5028842;28;20454;-75
2021/10/27 17:17:36;;;;;;;9.87;5.37;;;12.10;87.30;;;;;;5029713;28;20989;-76